createdAt,value
2018-04-26T00:00:40.648Z,7.98
2018-04-26T00:01:45.160Z,7.97
2018-04-26T00:02:49.233Z,7.97
2018-04-26T00:03:53.347Z,8.00
2018-04-26T00:04:58.416Z,7.98
2018-04-26T00:06:02.533Z,7.96
2018-04-26T00:07:06.596Z,7.95
2018-04-26T00:08:10.765Z,7.94
2018-04-26T00:09:14.852Z,7.96
2018-04-26T00:10:18.927Z,7.96
2018-04-26T00:11:23.100Z,8.03
2018-04-26T00:12:27.197Z,8.05
2018-04-26T00:13:31.742Z,8.05
2018-04-26T00:14:35.879Z,8.01
2018-04-26T00:15:40.755Z,7.95
2018-04-26T00:16:45.206Z,7.90
2018-04-26T00:17:49.397Z,7.82
2018-04-26T00:18:53.485Z,7.73
2018-04-26T00:19:58.091Z,7.73
2018-04-26T00:21:02.253Z,7.74
2018-04-26T00:22:06.411Z,7.71
2018-04-26T00:23:10.483Z,7.63
2018-04-26T00:24:14.577Z,7.61
2018-04-26T00:25:18.991Z,7.61
2018-04-26T00:26:23.140Z,7.61
2018-04-26T00:27:27.207Z,7.61
2018-04-26T00:28:31.283Z,7.62
2018-04-26T00:29:35.511Z,7.64
2018-04-26T00:30:40.480Z,7.66
2018-04-26T00:31:44.780Z,7.72
2018-04-26T00:32:48.921Z,7.76
2018-04-26T00:33:53.024Z,7.75
2018-04-26T00:34:57.265Z,7.70
2018-04-26T00:36:01.947Z,7.66
2018-04-26T00:37:07.636Z,7.68
2018-04-26T00:38:11.790Z,7.67
2018-04-26T00:39:15.916Z,7.69
2018-04-26T00:40:20.110Z,7.74
2018-04-26T00:41:24.441Z,7.70
2018-04-26T00:42:29.519Z,7.68
2018-04-26T00:43:33.603Z,7.67
2018-04-26T00:44:37.711Z,7.72
2018-04-26T00:45:43.292Z,7.73
2018-04-26T00:46:47.464Z,7.75
2018-04-26T00:47:52.210Z,7.76
2018-04-26T00:48:56.643Z,7.74
2018-04-26T00:50:01.730Z,7.86
2018-04-26T00:51:06.893Z,7.87
2018-04-26T00:52:11.084Z,7.79
2018-04-26T00:53:15.218Z,7.80
2018-04-26T00:54:19.446Z,7.78
2018-04-26T00:55:23.947Z,7.89
2018-04-26T00:56:28.045Z,7.85
2018-04-26T00:57:32.137Z,7.86
2018-04-26T00:58:36.612Z,7.81
2018-04-26T00:59:41.468Z,7.86
2018-04-26T01:00:46.015Z,7.84
2018-04-26T01:01:50.409Z,7.80
2018-04-26T01:02:55.425Z,7.74
2018-04-26T01:04:00.410Z,7.70
2018-04-26T01:05:04.560Z,7.67
2018-04-26T01:06:08.847Z,7.68
2018-04-26T01:07:12.962Z,7.69
2018-04-26T01:08:17.495Z,7.68
2018-04-26T01:09:21.595Z,7.68
2018-04-26T01:10:25.907Z,7.65
2018-04-26T01:11:29.981Z,7.65
2018-04-26T01:12:34.123Z,7.64
2018-04-26T01:13:38.617Z,7.68
2018-04-26T01:14:44.287Z,7.67
2018-04-26T01:17:35.940Z,7.58
2018-04-26T01:18:40.588Z,7.63
2018-04-26T01:19:44.942Z,7.64
2018-04-26T01:20:49.086Z,7.65
2018-04-26T01:21:53.217Z,7.64
2018-04-26T01:22:57.902Z,7.62
2018-04-26T01:24:02.142Z,7.60
2018-04-26T01:25:06.311Z,7.60
2018-04-26T01:26:10.710Z,7.58
2018-04-26T01:28:58.653Z,7.59
2018-04-26T01:30:05.704Z,7.53
2018-04-26T01:31:10.941Z,7.52
2018-04-26T01:32:15.737Z,7.54
2018-04-26T01:33:22.116Z,7.53
2018-04-26T01:34:27.131Z,7.56
2018-04-26T01:35:32.121Z,7.61
2018-04-26T01:36:45.343Z,7.66
2018-04-26T01:37:49.913Z,7.66
2018-04-26T01:38:55.330Z,7.63
2018-04-26T01:40:00.700Z,7.65
2018-04-26T01:41:10.251Z,7.66
2018-04-26T01:42:15.739Z,7.68
2018-04-26T01:43:21.064Z,7.66
2018-04-26T01:44:25.803Z,7.62
2018-04-26T01:45:30.408Z,7.59
2018-04-26T01:46:36.946Z,7.58
2018-04-26T01:47:42.632Z,7.62
2018-04-26T01:48:48.213Z,7.61
2018-04-26T01:49:54.559Z,7.60
2018-04-26T01:50:58.719Z,7.61
2018-04-26T01:52:06.368Z,7.61
2018-04-26T01:53:12.562Z,7.61
2018-04-26T01:54:18.218Z,7.63
2018-04-26T01:55:22.393Z,7.65
2018-04-26T01:56:27.486Z,7.64
2018-04-26T01:57:35.802Z,7.63
2018-04-26T01:58:41.043Z,7.61
2018-04-26T01:59:46.071Z,7.60
2018-04-26T02:00:52.898Z,7.61
2018-04-26T02:02:00.739Z,7.63
2018-04-26T02:03:07.233Z,7.66
2018-04-26T02:04:13.392Z,7.67
2018-04-26T02:05:20.793Z,7.70
2018-04-26T02:06:26.130Z,7.70
2018-04-26T02:07:30.372Z,7.69
2018-04-26T02:08:35.526Z,7.69
2018-04-26T02:09:40.539Z,7.72
2018-04-26T02:10:45.379Z,7.78
2018-04-26T02:11:50.311Z,7.81
2018-04-26T02:12:56.394Z,7.82
2018-04-26T02:14:01.235Z,7.86
2018-04-26T02:15:08.721Z,7.84
2018-04-26T02:16:13.491Z,7.84
2018-04-26T02:17:19.037Z,7.85
2018-04-26T02:18:24.414Z,7.85
2018-04-26T02:19:29.183Z,7.84
2018-04-26T02:20:33.460Z,7.83
2018-04-26T02:21:39.236Z,7.84
2018-04-26T02:22:44.692Z,7.80
2018-04-26T02:23:49.422Z,7.82
2018-04-26T02:24:54.263Z,7.78
2018-04-26T02:25:59.181Z,7.78
2018-04-26T02:27:04.031Z,7.81
2018-04-26T02:28:08.853Z,7.81
2018-04-26T02:29:13.125Z,7.81
2018-04-26T02:30:18.037Z,7.84
2018-04-26T02:31:22.181Z,7.83
2018-04-26T02:32:26.916Z,7.86
2018-04-26T02:33:31.773Z,7.87
2018-04-26T02:34:36.902Z,7.86
2018-04-26T02:35:41.700Z,7.85
2018-04-26T02:36:47.950Z,7.83
2018-04-26T02:37:52.727Z,7.88
2018-04-26T02:38:57.800Z,7.86
2018-04-26T02:40:03.272Z,7.86
2018-04-26T02:41:08.976Z,7.84
2018-04-26T02:42:14.507Z,7.87
2018-04-26T02:43:19.528Z,7.86
2018-04-26T02:44:24.880Z,7.86
2018-04-26T02:45:29.095Z,7.83
2018-04-26T02:46:33.961Z,7.84
2018-04-26T02:47:38.202Z,7.85
2018-04-26T02:48:42.906Z,7.83
2018-04-26T02:49:48.240Z,7.81
2018-04-26T02:50:53.123Z,7.82
2018-04-26T02:51:57.262Z,7.81
2018-04-26T02:53:02.720Z,7.85
2018-04-26T02:54:07.745Z,7.86
2018-04-26T02:55:12.283Z,7.82
2018-04-26T02:56:17.652Z,7.79
2018-04-26T02:57:22.730Z,7.75
2018-04-26T03:00:22.844Z,7.75
2018-04-26T03:01:27.503Z,7.73
2018-04-26T03:02:31.661Z,7.74
2018-04-26T03:03:35.850Z,7.73
2018-04-26T03:04:40.168Z,7.75
2018-04-26T03:05:44.691Z,7.75
2018-04-26T03:06:48.803Z,7.75
2018-04-26T03:07:52.956Z,7.76
2018-04-26T03:08:57.146Z,7.82
2018-04-26T03:10:01.923Z,7.83
2018-04-26T03:11:06.125Z,7.82
2018-04-26T03:12:10.592Z,7.79
2018-04-26T03:13:14.701Z,7.80
2018-04-26T03:14:18.831Z,7.82
2018-04-26T03:15:23.008Z,7.84
2018-04-26T03:16:27.184Z,7.85
2018-04-26T03:17:31.306Z,7.84
2018-04-26T03:18:35.807Z,7.93
2018-04-26T03:19:39.917Z,8.00
2018-04-26T03:20:44.107Z,7.95
2018-04-26T03:21:48.251Z,7.91
2018-04-26T03:22:52.349Z,7.86
2018-04-26T03:23:56.535Z,7.84
2018-04-26T03:25:00.737Z,7.87
2018-04-26T03:26:04.835Z,7.86
2018-04-26T03:27:08.957Z,7.85
2018-04-26T03:28:13.077Z,7.83
2018-04-26T03:29:17.261Z,7.79
2018-04-26T03:30:21.424Z,7.81
2018-04-26T03:31:25.901Z,7.76
2018-04-26T03:32:30.038Z,7.74
2018-04-26T03:33:34.157Z,7.72
2018-04-26T03:34:38.779Z,7.70
2018-04-26T03:35:45.283Z,7.67
2018-04-26T03:36:49.853Z,7.65
2018-04-26T03:37:54.341Z,7.69
2018-04-26T03:38:59.144Z,7.66
2018-04-26T03:40:04.695Z,7.64
2018-04-26T03:41:08.819Z,7.65
2018-04-26T03:42:14.067Z,7.64
2018-04-26T03:43:18.687Z,7.61
2018-04-26T03:44:24.205Z,7.60
2018-04-26T03:45:29.295Z,7.64
2018-04-26T03:46:33.803Z,7.64
2018-04-26T03:47:38.799Z,7.64
2018-04-26T03:48:43.791Z,7.63
2018-04-26T03:49:48.521Z,7.64
2018-04-26T03:50:53.923Z,7.69
2018-04-26T03:52:00.781Z,7.72
2018-04-26T03:53:05.820Z,7.73
2018-04-26T03:54:10.052Z,7.78
2018-04-26T03:55:15.115Z,7.78
2018-04-26T03:56:20.191Z,7.77
2018-04-26T03:57:24.693Z,7.74
2018-04-26T03:58:30.282Z,7.69
2018-04-26T03:59:43.148Z,7.65
2018-04-26T04:02:59.451Z,7.68
2018-04-26T04:06:17.278Z,7.69
2018-04-26T04:07:21.373Z,7.69
2018-04-26T04:08:25.511Z,7.69
2018-04-26T04:09:29.614Z,7.70
2018-04-26T04:10:33.718Z,7.72
2018-04-26T04:11:37.844Z,7.74
2018-04-26T04:12:42.324Z,7.78
2018-04-26T04:13:47.147Z,7.90
2018-04-26T04:14:51.242Z,7.94
2018-04-26T04:15:55.476Z,7.91
2018-04-26T04:17:00.822Z,7.89
2018-04-26T04:18:05.769Z,7.89
2018-04-26T04:19:10.277Z,7.87
2018-04-26T04:20:14.389Z,7.88
2018-04-26T04:21:18.475Z,7.88
2018-04-26T04:22:22.628Z,7.87
2018-04-26T04:23:26.774Z,7.86
2018-04-26T04:24:31.093Z,7.85
2018-04-26T04:25:35.247Z,7.90
2018-04-26T04:26:39.336Z,7.93
2018-04-26T04:27:43.486Z,7.95
2018-04-26T04:28:47.691Z,7.96
2018-04-26T04:29:51.873Z,7.94
2018-04-26T04:30:55.976Z,7.92
2018-04-26T04:32:00.100Z,7.95
2018-04-26T04:33:04.201Z,7.95
2018-04-26T04:34:08.407Z,7.93
2018-04-26T04:35:12.643Z,7.91
2018-04-26T04:36:16.733Z,7.91
2018-04-26T04:37:21.695Z,7.91
2018-04-26T04:38:25.972Z,7.92
2018-04-26T04:39:30.500Z,7.90
2018-04-26T04:40:34.995Z,7.91
2018-04-26T04:41:39.196Z,7.94
2018-04-26T04:42:44.959Z,7.91
2018-04-26T04:43:50.077Z,7.90
2018-04-26T04:44:54.170Z,7.93
2018-04-26T04:45:58.414Z,7.95
2018-04-26T04:47:03.022Z,7.94
2018-04-26T04:48:07.601Z,8.00
2018-04-26T04:49:12.736Z,8.05
2018-04-26T04:50:16.844Z,8.05
2018-04-26T04:51:20.971Z,8.00
2018-04-26T04:52:25.535Z,7.98
2018-04-26T04:53:30.042Z,7.96
2018-04-26T04:54:34.256Z,7.94
2018-04-26T04:55:39.809Z,7.96
2018-04-26T04:56:43.930Z,7.96
2018-04-26T04:57:48.929Z,7.95
2018-04-26T04:58:53.237Z,7.95
2018-04-26T04:59:57.692Z,7.95
2018-04-26T05:01:01.877Z,7.93
2018-04-26T05:02:07.610Z,7.96
2018-04-26T05:03:11.728Z,8.04
2018-04-26T05:04:16.218Z,7.99
2018-04-26T05:05:21.319Z,7.96
2018-04-26T05:06:25.744Z,7.98
2018-04-26T05:07:30.109Z,8.02
2018-04-26T05:08:34.657Z,7.99
2018-04-26T05:09:39.172Z,7.99
2018-04-26T05:10:43.975Z,7.99
2018-04-26T05:11:49.670Z,7.98
2018-04-26T05:12:53.822Z,7.96
2018-04-26T05:13:58.026Z,7.97
2018-04-26T05:15:03.903Z,7.98
2018-04-26T05:16:07.996Z,7.95
2018-04-26T05:17:12.270Z,7.96
2018-04-26T05:18:17.872Z,7.94
2018-04-26T05:19:21.980Z,7.98
2018-04-26T05:20:26.102Z,8.03
2018-04-26T05:21:30.318Z,8.05
2018-04-26T05:22:34.454Z,8.05
2018-04-26T05:23:39.414Z,8.08
2018-04-26T05:24:43.556Z,8.09
2018-04-26T05:25:47.796Z,8.06
2018-04-26T05:26:52.248Z,8.08
2018-04-26T05:27:56.454Z,8.09
2018-04-26T05:29:03.296Z,8.11
2018-04-26T05:30:07.446Z,8.10
2018-04-26T05:31:11.946Z,8.14
2018-04-26T05:32:16.159Z,8.20
2018-04-26T05:33:20.351Z,8.17
2018-04-26T05:34:25.198Z,8.09
2018-04-26T05:35:30.653Z,8.08
2018-04-26T05:36:34.833Z,8.09
2018-04-26T05:37:39.032Z,8.11
2018-04-26T05:38:43.645Z,8.18
2018-04-26T05:39:48.787Z,8.21
2018-04-26T05:40:53.013Z,8.24
2018-04-26T05:41:57.148Z,8.28
2018-04-26T05:43:01.556Z,8.23
2018-04-26T05:44:05.832Z,8.21
2018-04-26T05:45:12.761Z,8.21
2018-04-26T05:46:17.078Z,8.24
2018-04-26T05:47:21.323Z,8.21
2018-04-26T05:48:25.538Z,8.21
2018-04-26T05:49:29.753Z,8.25
2018-04-26T05:50:34.264Z,8.22
2018-04-26T05:51:38.386Z,8.17
2018-04-26T05:52:44.034Z,8.16
2018-04-26T05:53:48.987Z,8.18
2018-04-26T05:54:54.385Z,8.16
2018-04-26T05:55:58.603Z,8.18
2018-04-26T05:57:02.709Z,8.20
2018-04-26T05:58:07.448Z,8.27
2018-04-26T05:59:13.939Z,8.32
2018-04-26T06:00:18.092Z,8.34
2018-04-26T06:01:22.278Z,8.35
2018-04-26T06:02:26.545Z,8.32
2018-04-26T06:03:30.812Z,8.32
2018-04-26T06:04:34.926Z,8.32
2018-04-26T06:05:39.702Z,8.28
2018-04-26T06:06:43.915Z,8.32
2018-04-26T06:07:49.011Z,8.37
2018-04-26T06:08:53.492Z,8.36
2018-04-26T06:09:57.605Z,8.31
2018-04-26T06:11:01.855Z,8.25
2018-04-26T06:12:06.260Z,8.26
2018-04-26T06:13:11.572Z,8.22
2018-04-26T06:14:15.700Z,8.18
2018-04-26T06:15:19.908Z,8.19
2018-04-26T06:16:24.824Z,8.22
2018-04-26T06:17:33.358Z,8.20
2018-04-26T06:18:37.591Z,8.18
2018-04-26T06:19:41.708Z,8.16
2018-04-26T06:20:46.765Z,8.16
2018-04-26T06:21:50.899Z,8.20
2018-04-26T06:22:55.179Z,8.20
2018-04-26T06:23:59.987Z,8.19
2018-04-26T06:25:04.114Z,8.17
2018-04-26T06:26:08.388Z,8.11
2018-04-26T06:27:12.638Z,8.14
2018-04-26T06:28:17.511Z,8.19
2018-04-26T06:29:21.642Z,8.17
2018-04-26T06:30:25.999Z,8.08
2018-04-26T06:31:30.203Z,8.10
2018-04-26T06:32:34.313Z,8.05
2018-04-26T06:33:38.515Z,8.01
2018-04-26T06:34:42.704Z,7.97
2018-04-26T06:35:48.498Z,7.92
2018-04-26T06:36:52.684Z,7.90
2018-04-26T06:37:56.979Z,7.88
2018-04-26T06:39:01.155Z,7.84
2018-04-26T06:40:05.317Z,7.83
2018-04-26T06:41:09.584Z,7.86
2018-04-26T06:42:13.844Z,7.87
2018-04-26T06:43:17.927Z,7.94
2018-04-26T06:44:22.036Z,8.04
2018-04-26T06:45:26.154Z,8.13
2018-04-26T06:46:30.265Z,8.11
2018-04-26T06:47:34.474Z,8.10
2018-04-26T06:48:45.864Z,8.20
2018-04-26T06:49:50.003Z,8.29
2018-04-26T06:50:55.067Z,8.39
2018-04-26T06:51:59.391Z,8.42
2018-04-26T06:53:03.912Z,8.47
2018-04-26T06:54:08.038Z,8.44
2018-04-26T06:55:12.173Z,8.36
2018-04-26T06:56:16.356Z,8.36
2018-04-26T06:57:20.490Z,8.34
2018-04-26T06:58:24.691Z,8.38
2018-04-26T06:59:29.163Z,8.46
2018-04-26T07:00:34.232Z,8.57
2018-04-26T07:01:38.325Z,8.62
2018-04-26T07:02:42.575Z,8.78
2018-04-26T07:03:46.773Z,9.01
2018-04-26T07:04:50.912Z,9.26
2018-04-26T07:05:55.446Z,9.37
2018-04-26T07:06:59.591Z,9.44
2018-04-26T07:08:03.800Z,9.42
2018-04-26T07:09:07.998Z,9.41
2018-04-26T07:10:12.311Z,9.29
2018-04-26T07:11:16.636Z,9.30
2018-04-26T07:12:20.762Z,9.25
2018-04-26T07:13:25.069Z,9.16
2018-04-26T07:14:29.656Z,9.23
2018-04-26T07:15:33.888Z,9.16
2018-04-26T07:16:38.111Z,9.25
2018-04-26T07:17:42.324Z,9.30
2018-04-26T07:18:48.900Z,9.18
2018-04-26T07:19:53.367Z,9.24
2018-04-26T07:20:57.518Z,9.14
2018-04-26T07:22:01.692Z,9.07
2018-04-26T07:23:05.954Z,9.06
2018-04-26T07:24:10.580Z,9.10
2018-04-26T07:25:14.876Z,9.24
2018-04-26T07:26:20.120Z,9.28
2018-04-26T07:27:24.388Z,9.16
2018-04-26T07:28:28.585Z,9.21
2018-04-26T07:29:32.698Z,9.21
2018-04-26T07:30:37.114Z,9.19
2018-04-26T07:31:41.214Z,9.19
2018-04-26T07:32:45.364Z,9.29
2018-04-26T07:33:50.496Z,9.40
2018-04-26T07:34:55.613Z,9.53
2018-04-26T07:35:59.752Z,9.63
2018-04-26T07:37:04.154Z,9.71
2018-04-26T07:38:08.359Z,9.77
2018-04-26T07:39:12.470Z,9.76
2018-04-26T07:40:16.593Z,9.60
2018-04-26T07:41:20.804Z,9.46
2018-04-26T07:42:25.111Z,9.39
2018-04-26T07:43:29.252Z,9.18
2018-04-26T07:44:33.357Z,9.00
2018-04-26T07:45:37.544Z,9.01
2018-04-26T07:46:41.670Z,8.98
2018-04-26T07:47:46.055Z,8.86
2018-04-26T07:48:51.577Z,8.80
2018-04-26T07:49:55.716Z,8.80
2018-04-26T07:50:59.850Z,8.83
2018-04-26T07:52:04.094Z,8.89
2018-04-26T07:53:08.242Z,9.09
2018-04-26T07:54:12.528Z,9.31
2018-04-26T07:55:16.928Z,9.56
2018-04-26T07:56:21.952Z,9.78
2018-04-26T07:57:26.225Z,9.84
2018-04-26T07:58:30.390Z,9.77
2018-04-26T07:59:34.614Z,9.77
2018-04-26T08:00:39.687Z,9.82
2018-04-26T08:01:44.157Z,9.90
2018-04-26T08:02:48.389Z,9.90
2018-04-26T08:03:52.509Z,10.15
2018-04-26T08:04:56.630Z,10.33
2018-04-26T08:06:00.853Z,10.62
2018-04-26T08:07:05.006Z,10.67
2018-04-26T08:08:09.160Z,10.86
2018-04-26T08:09:13.417Z,10.79
2018-04-26T08:10:17.516Z,10.54
2018-04-26T08:11:21.706Z,10.59
2018-04-26T08:12:26.136Z,10.81
2018-04-26T08:13:30.272Z,10.90
2018-04-26T08:14:34.496Z,11.18
2018-04-26T08:15:38.640Z,11.38
2018-04-26T08:16:42.790Z,11.63
2018-04-26T08:17:46.987Z,11.54
2018-04-26T08:18:51.568Z,11.33
2018-04-26T08:19:55.878Z,11.00
2018-04-26T08:21:01.146Z,10.89
2018-04-26T08:22:05.824Z,10.97
2018-04-26T08:23:09.986Z,11.18
2018-04-26T08:24:14.186Z,11.47
2018-04-26T08:25:18.744Z,11.65
2018-04-26T08:26:22.859Z,11.82
2018-04-26T08:27:27.272Z,12.02
2018-04-26T08:28:31.466Z,12.09
2018-04-26T08:29:35.592Z,12.07
2018-04-26T08:30:39.706Z,11.98
2018-04-26T08:31:44.177Z,12.10
2018-04-26T08:32:48.295Z,12.48
2018-04-26T08:33:52.410Z,12.71
2018-04-26T08:34:56.505Z,12.97
2018-04-26T08:36:01.287Z,12.93
2018-04-26T08:37:05.428Z,12.79
2018-04-26T08:38:09.803Z,12.68
2018-04-26T08:39:13.925Z,12.82
2018-04-26T08:40:18.140Z,12.93
2018-04-26T08:41:24.251Z,12.96
2018-04-26T08:42:28.777Z,13.11
2018-04-26T08:43:35.042Z,13.00
2018-04-26T08:44:39.495Z,12.33
2018-04-26T08:45:44.519Z,12.13
2018-04-26T08:46:48.608Z,12.07
2018-04-26T08:47:53.690Z,12.04
2018-04-26T08:48:58.252Z,11.86
2018-04-26T08:50:03.639Z,11.56
2018-04-26T08:51:09.149Z,11.38
2018-04-26T08:52:13.501Z,11.26
2018-04-26T08:53:18.028Z,11.26
2018-04-26T08:54:22.953Z,11.44
2018-04-26T08:55:27.607Z,11.54
2018-04-26T08:56:31.900Z,11.56
2018-04-26T08:57:36.979Z,11.78
2018-04-26T08:58:42.228Z,12.13
2018-04-26T08:59:47.540Z,12.14
2018-04-26T09:00:52.501Z,11.95
2018-04-26T09:01:57.554Z,11.79
2018-04-26T09:03:03.405Z,11.90
2018-04-26T09:04:08.549Z,11.92
2018-04-26T09:05:14.576Z,12.10
2018-04-26T09:06:19.065Z,12.02
2018-04-26T09:07:23.550Z,11.91
2018-04-26T09:08:28.687Z,11.77
2018-04-26T09:09:38.327Z,11.71
2018-04-26T09:10:42.533Z,11.68
2018-04-26T09:11:46.681Z,11.65
2018-04-26T09:12:50.851Z,11.75
2018-04-26T09:13:55.081Z,11.68
2018-04-26T09:14:59.224Z,11.74
2018-04-26T09:16:04.587Z,11.82
2018-04-26T09:17:08.819Z,11.76
2018-04-26T09:18:15.117Z,11.74
2018-04-26T09:19:19.401Z,11.81
2018-04-26T09:20:23.623Z,11.76
2018-04-26T09:21:27.871Z,11.90
2018-04-26T09:22:32.334Z,12.12
2018-04-26T09:23:36.491Z,12.38
2018-04-26T09:24:40.701Z,12.40
2018-04-26T09:25:44.852Z,12.27
2018-04-26T09:26:48.959Z,11.85
2018-04-26T09:27:53.179Z,11.33
2018-04-26T09:28:57.314Z,10.98
2018-04-26T09:30:01.544Z,10.89
2018-04-26T09:31:05.674Z,10.25
2018-04-26T09:32:09.891Z,9.77
2018-04-26T09:33:14.057Z,9.48
2018-04-26T09:34:18.375Z,9.23
2018-04-26T09:35:22.644Z,9.06
2018-04-26T09:36:27.730Z,9.00
2018-04-26T09:37:31.827Z,9.23
2018-04-26T09:38:36.030Z,9.56
2018-04-26T09:39:40.563Z,9.70
2018-04-26T09:40:44.715Z,9.85
2018-04-26T09:41:48.860Z,9.82
2018-04-26T09:42:53.022Z,9.89
2018-04-26T09:43:57.196Z,9.80
2018-04-26T09:45:01.420Z,9.95
2018-04-26T09:46:06.453Z,9.94
2018-04-26T09:47:10.711Z,9.87
2018-04-26T09:48:15.027Z,9.89
2018-04-26T09:49:19.219Z,9.80
2018-04-26T09:50:23.393Z,9.92
2018-04-26T09:51:28.119Z,9.93
2018-04-26T09:52:32.660Z,10.00
2018-04-26T09:53:36.888Z,10.16
2018-04-26T09:54:41.016Z,10.44
2018-04-26T09:55:45.209Z,10.78
2018-04-26T09:56:49.368Z,11.13
2018-04-26T09:57:53.592Z,11.43
2018-04-26T09:58:57.745Z,11.49
2018-04-26T10:00:02.825Z,11.83
2018-04-26T10:01:10.480Z,12.24
2018-04-26T10:02:14.690Z,12.73
2018-04-26T10:03:18.821Z,13.31
2018-04-26T10:04:22.960Z,13.61
2018-04-26T10:05:31.534Z,13.72
2018-04-26T10:06:35.841Z,13.74
2018-04-26T10:07:39.973Z,13.44
2018-04-26T10:08:44.799Z,13.67
2018-04-26T10:09:48.869Z,13.89
2018-04-26T10:10:52.988Z,13.88
2018-04-26T10:11:57.487Z,13.83
2018-04-26T10:13:01.893Z,14.00
2018-04-26T10:14:06.100Z,14.02
2018-04-26T10:15:10.325Z,13.91
2018-04-26T10:16:14.464Z,13.27
2018-04-26T10:17:18.648Z,12.84
2018-04-26T10:18:23.980Z,12.63
2018-04-26T10:19:29.246Z,12.42
2018-04-26T10:20:33.750Z,11.80
2018-04-26T10:21:38.636Z,10.61
2018-04-26T10:22:43.632Z,9.78
2018-04-26T10:23:48.351Z,9.45
2018-04-26T10:24:54.763Z,9.15
2018-04-26T10:26:02.206Z,8.81
2018-04-26T10:27:09.505Z,8.66
2018-04-26T10:28:13.922Z,8.61
2018-04-26T10:29:18.387Z,8.45
2018-04-26T10:30:22.696Z,8.51
2018-04-26T10:31:27.116Z,8.64
2018-04-26T10:32:33.612Z,8.63
2018-04-26T10:34:13.185Z,8.57
2018-04-26T10:35:17.805Z,8.84
2018-04-26T10:36:50.941Z,8.86
2018-04-26T10:39:23.570Z,8.72
2018-04-26T10:40:28.225Z,8.65
2018-04-26T10:41:33.121Z,8.68
2018-04-26T10:42:37.360Z,8.94
2018-04-26T10:43:41.550Z,8.96
2018-04-26T10:44:45.666Z,8.89
2018-04-26T10:45:50.567Z,8.94
2018-04-26T10:46:55.108Z,8.90
2018-04-26T10:47:59.271Z,8.84
2018-04-26T10:49:04.282Z,8.81
2018-04-26T10:50:09.528Z,8.84
2018-04-26T10:51:13.636Z,9.11
2018-04-26T10:52:17.758Z,9.35
2018-04-26T10:53:22.280Z,9.68
2018-04-26T10:54:26.447Z,9.74
2018-04-26T10:55:30.552Z,9.90
2018-04-26T10:56:34.657Z,10.11
2018-04-26T10:57:38.932Z,10.45
2018-04-26T10:58:43.056Z,11.10
2018-04-26T10:59:47.388Z,11.21
2018-04-26T11:00:51.638Z,11.30
2018-04-26T11:01:56.042Z,11.39
2018-04-26T11:03:00.185Z,11.44
2018-04-26T11:04:05.236Z,11.54
2018-04-26T11:05:09.472Z,11.57
2018-04-26T11:06:14.025Z,11.42
2018-04-26T11:07:18.270Z,11.27
2018-04-26T11:08:23.413Z,10.94
2018-04-26T11:09:27.667Z,10.78
2018-04-26T11:10:31.912Z,10.75
2018-04-26T11:11:36.106Z,10.67
2018-04-26T11:12:40.319Z,10.44
2018-04-26T11:13:44.717Z,10.53
2018-04-26T11:14:48.877Z,10.60
2018-04-26T11:15:53.904Z,10.84
2018-04-26T11:16:58.133Z,11.02
2018-04-26T11:18:04.505Z,11.11
2018-04-26T11:19:08.670Z,11.20
2018-04-26T11:20:12.876Z,11.80
2018-04-26T11:21:17.125Z,12.48
2018-04-26T11:22:21.250Z,12.93
2018-04-26T11:23:26.183Z,13.10
2018-04-26T11:24:30.309Z,13.35
2018-04-26T11:25:34.531Z,14.04
2018-04-26T11:26:38.651Z,14.90
2018-04-26T11:27:42.789Z,14.77
2018-04-26T11:28:46.897Z,14.95
2018-04-26T11:29:51.044Z,15.03
2018-04-26T11:30:55.415Z,15.12
2018-04-26T11:31:59.600Z,14.52
2018-04-26T11:33:03.713Z,13.52
2018-04-26T11:34:08.028Z,13.22
2018-04-26T11:35:12.182Z,12.76
2018-04-26T11:36:17.704Z,12.25
2018-04-26T11:37:21.939Z,11.99
2018-04-26T11:38:26.738Z,11.51
2018-04-26T11:39:30.923Z,10.93
2018-04-26T11:40:35.043Z,10.62
2018-04-26T11:41:39.791Z,10.35
2018-04-26T11:42:44.231Z,10.26
2018-04-26T11:43:48.425Z,10.12
2018-04-26T11:44:52.587Z,10.05
2018-04-26T11:45:56.705Z,10.02
2018-04-26T11:47:01.000Z,10.09
2018-04-26T11:48:05.330Z,10.33
2018-04-26T11:49:09.982Z,10.72
2018-04-26T11:50:14.102Z,11.52
2018-04-26T11:51:18.201Z,12.55
2018-04-26T11:52:22.428Z,12.93
2018-04-26T11:53:26.814Z,12.81
2018-04-26T11:54:30.948Z,12.49
2018-04-26T11:55:35.182Z,12.32
2018-04-26T11:56:39.673Z,12.09
2018-04-26T11:57:43.837Z,11.87
2018-04-26T11:58:48.082Z,11.69
2018-04-26T11:59:52.516Z,11.42
2018-04-26T12:00:56.738Z,11.37
2018-04-26T12:02:00.884Z,11.30
2018-04-26T12:03:04.996Z,11.34
2018-04-26T12:04:09.206Z,11.24
2018-04-26T12:05:13.346Z,11.22
2018-04-26T12:06:17.918Z,11.16
2018-04-26T12:07:22.016Z,11.04
2018-04-26T12:08:26.182Z,11.14
2018-04-26T12:09:31.512Z,11.27
2018-04-26T12:10:35.767Z,11.42
2018-04-26T12:11:39.959Z,11.96
2018-04-26T12:12:44.096Z,13.18
2018-04-26T12:13:48.216Z,14.25
2018-04-26T12:14:52.318Z,15.24
2018-04-26T12:15:56.546Z,15.36
2018-04-26T12:17:00.836Z,15.27
2018-04-26T12:18:06.418Z,15.68
2018-04-26T12:19:10.529Z,15.35
2018-04-26T12:20:14.630Z,15.19
2018-04-26T12:21:18.826Z,14.93
2018-04-26T12:22:22.943Z,14.80
2018-04-26T12:23:27.188Z,15.16
2018-04-26T12:24:31.679Z,15.48
2018-04-26T12:25:35.819Z,14.98
2018-04-26T12:26:39.989Z,14.81
2018-04-26T12:27:44.202Z,14.76
2018-04-26T12:28:48.349Z,14.20
2018-04-26T12:29:52.482Z,13.65
2018-04-26T12:30:56.599Z,13.31
2018-04-26T12:32:00.748Z,13.27
2018-04-26T12:33:04.960Z,13.08
2018-04-26T12:34:09.227Z,13.00
2018-04-26T12:35:13.688Z,12.79
2018-04-26T12:36:17.881Z,12.84
2018-04-26T12:37:22.076Z,12.63
2018-04-26T12:38:26.241Z,12.49
2018-04-26T12:39:30.373Z,12.47
2018-04-26T12:41:49.249Z,12.15
2018-04-26T12:42:53.796Z,11.97
2018-04-26T12:43:57.965Z,11.48
2018-04-26T12:45:03.354Z,11.24
2018-04-26T12:46:07.672Z,10.95
2018-04-26T12:47:12.217Z,10.84
2018-04-26T12:48:16.383Z,10.99
2018-04-26T12:49:20.589Z,11.06
2018-04-26T12:50:24.792Z,11.12
2018-04-26T12:51:28.946Z,11.33
2018-04-26T12:53:40.243Z,11.65
2018-04-26T12:54:44.560Z,11.69
2018-04-26T12:55:48.908Z,11.89
2018-04-26T12:56:53.220Z,11.92
2018-04-26T12:57:57.366Z,11.77
2018-04-26T12:59:01.562Z,11.67
2018-04-26T13:00:08.160Z,11.68
2018-04-26T13:01:12.618Z,11.82
2018-04-26T13:02:17.210Z,11.84
2018-04-26T13:03:21.337Z,12.08
2018-04-26T13:04:25.641Z,13.43
2018-04-26T13:05:29.897Z,15.09
2018-04-26T13:06:34.409Z,16.27
2018-04-26T13:07:38.578Z,17.15
2018-04-26T13:08:42.719Z,16.88
2018-04-26T13:09:46.914Z,15.81
2018-04-26T13:10:51.168Z,15.13
2018-04-26T13:11:55.437Z,14.91
2018-04-26T13:12:59.595Z,14.56
2018-04-26T13:14:03.761Z,14.37
2018-04-26T13:15:08.020Z,14.44
2018-04-26T13:16:12.629Z,14.56
2018-04-26T13:17:17.272Z,15.07
2018-04-26T13:18:22.067Z,15.59
2018-04-26T13:19:26.431Z,15.73
2018-04-26T13:20:30.574Z,16.07
2018-04-26T13:21:34.814Z,16.74
2018-04-26T13:22:39.861Z,17.44
2018-04-26T13:23:44.042Z,17.94
2018-04-26T13:24:48.515Z,17.46
2018-04-26T13:25:52.849Z,17.30
2018-04-26T13:26:57.280Z,17.41
2018-04-26T13:28:01.593Z,17.76
2018-04-26T13:29:05.897Z,16.55
2018-04-26T13:30:10.609Z,15.82
2018-04-26T13:31:15.304Z,15.40
2018-04-26T13:32:19.726Z,15.28
2018-04-26T13:33:23.939Z,15.15
2018-04-26T13:34:28.154Z,14.84
2018-04-26T13:35:32.545Z,14.98
2018-04-26T13:36:37.328Z,15.76
2018-04-26T13:37:41.773Z,16.29
2018-04-26T13:38:45.950Z,15.78
2018-04-26T13:39:50.191Z,14.80
2018-04-26T13:40:54.307Z,14.07
2018-04-26T13:41:58.615Z,13.52
2018-04-26T13:43:02.822Z,13.37
2018-04-26T13:44:07.076Z,13.19
2018-04-26T13:45:14.808Z,13.07
2018-04-26T13:46:19.184Z,12.82
2018-04-26T13:47:23.292Z,12.34
2018-04-26T13:48:27.776Z,11.66
2018-04-26T13:49:32.274Z,11.24
2018-04-26T13:50:36.653Z,10.86
2018-04-26T13:51:41.768Z,10.52
2018-04-26T13:52:45.935Z,10.36
2018-04-26T13:53:50.169Z,10.17
2018-04-26T13:54:54.792Z,10.11
2018-04-26T13:55:59.187Z,10.11
2018-04-26T13:57:03.428Z,10.17
2018-04-26T13:58:07.693Z,10.22
2018-04-26T13:59:12.106Z,10.16
2018-04-26T14:00:18.566Z,10.10
2018-04-26T14:01:22.847Z,10.13
2018-04-26T14:02:27.164Z,10.03
2018-04-26T14:03:31.297Z,9.80
2018-04-26T14:04:35.473Z,9.56
2018-04-26T14:05:40.457Z,9.37
2018-04-26T14:06:44.711Z,9.33
2018-04-26T14:07:48.915Z,9.29
2018-04-26T14:08:53.069Z,9.35
2018-04-26T14:09:57.256Z,9.72
2018-04-26T14:11:01.403Z,10.65
2018-04-26T14:12:05.733Z,11.65
2018-04-26T14:13:10.181Z,12.26
2018-04-26T14:14:14.322Z,14.12
2018-04-26T14:15:18.897Z,15.00
2018-04-26T14:16:23.116Z,15.52
2018-04-26T14:17:27.377Z,15.97
2018-04-26T14:18:31.878Z,15.35
2018-04-26T14:19:36.024Z,15.11
2018-04-26T14:20:40.301Z,14.67
2018-04-26T14:21:44.475Z,15.01
2018-04-26T14:22:48.632Z,15.88
2018-04-26T14:23:52.899Z,15.47